Share

Almagrundet, Sweden

1:29 PM CEST on April 24, 2014 (GMT +0200)
ITROUVIL2 Elev 10 ft | 59.28 °N, 18.93 °E | Change Station

Current weather conditions updated 4 minutes ago

Clear
Clear
37.0 °F
Feels Like 37 °F
N
0.0
Wind Variable Wind from North
Gusts 0.0 mph
Sunrise 5:04 AM
Sunset 8:19 PM
Moon Waning Crescent

Today is forecast to be nearly the same temperature as yesterday.

Pressure 30.51 in
Visibility -9999.0 miles
Clouds
Windchill 37 °F
Dew Point 37 °F
Humidity 100%
Rainfall 0.00 in
Snow Depth Not available.
UV Not available.
Pollen Not available.
Air Quality Not available.
Flu Activity Not available.
METAR ESSB 241120Z 10008KT CAVOK 11/M10 Q1033

More Conditions Fewer Conditions

Pressure 30.51 in
Visibility -9999.0 miles
Clouds
Windchill 37 °F
Dew Point 37 °F
Humidity 100%
Rainfall 0.00 in
Snow Depth Not available.
UV Not available.
Pollen Not available.
Air Quality Not available.
Flu Activity Not available.
METAR ESSB 241120Z 10008KT CAVOK 11/M10 Q1033

More Conditions Fewer Conditions

10-Day Weather Forecast

Almanac

Astronomy

Apr. 24, 2014 Rise Set
Actual Time 5:04 AM CEST 8:19 PM CEST
Civil Twilight 4:17 AM CEST 9:08 PM CEST
Nautical Twilight 3:10 AM CEST 10:15 PM CEST
Astronomical Twilight 1:00 AM CEST 12:09 AM CEST
Moon 3:21 AM CEST 2:03 PM CEST
Length of Visible Light 16h 50m
Length of Day
15h 14m
Tomorrow will be 5m 6s longer.
Waning Crescent, 26% of the Moon is Illuminated
Today
Waning Crescent
Apr 29
New
May 6
First Quarter
May 14
Full
May 21
Last Quarter

Yesterday's Extremes

Country Highs Country Lows

Community

  • Stacked
    Stacked
  • clouds approaching Red Sox Nation
    clouds approaching Red Sox Nation
  • Balance
    Balance
  • Nestled In
    Nestled In
  • Stunning Sunrise
    Stunning Sunrise

WunderPhotos

Upload Photos

1,704,584 photos uploaded!

WunderBlogs® & News

Nearby

Snow Depth

Not available.

Coastal Water Temperatures

Place Temperature
No Stations Reporting

Earthquake Activity

City Distance Mag. Time & Date
No recent earthquake activity has been reported nearby.
Minimum magnitude displayed is 2.5.

Nearby Weather Stations

Station Location Temp. Windchill Dew Point Humidity Wind Precip. Elev Updated Type
Sandhamn 37.0 °F 37 °F 37 °F 100% North  at  0.0 mph 0.00 in / hr 10 ft 1:24 PM CEST Normal
Saltaro, Saltaro 55.4 °F - 20 °F 25% East  at  4.5 mph 0.00 in / hr 46 ft 1:29 PM CEST Normal
Abborrkroken 50.2 °F - 19 °F 29% ESE  at  6.7 mph 0.00 in / hr 75 ft 1:29 PM CEST Rapid Fire
L. Ravson, Stockholm Archipelago 53.6 °F - 23 °F 31% SE  at  5.0 mph - / hr 66 ft 1:25 PM CEST Normal

Show More Stations Show Fewer Stations

What do you think?

We're not finished. Please let us know what you like, what you don't like, and what you are still missing.